createdAt,value
2022-12-25T00:01:21.437Z,35.77
2022-12-25T00:03:48.928Z,34.57
2022-12-25T00:06:16.247Z,25.43
2022-12-25T00:08:43.539Z,21.13
2022-12-25T00:11:16.577Z,30.80
2022-12-25T00:13:44.382Z,22.83
2022-12-25T00:16:17.927Z,28.43
2022-12-25T00:18:45.654Z,29.50
2022-12-25T00:21:13.635Z,16.80
2022-12-25T00:23:40.905Z,26.80
2022-12-25T00:26:10.910Z,23.43
2022-12-25T00:28:38.157Z,25.77
2022-12-25T00:31:11.432Z,21.07
2022-12-25T00:33:39.954Z,21.87
2022-12-25T00:36:08.440Z,17.10
2022-12-25T00:38:37.285Z,19.07
2022-12-25T00:41:12.409Z,20.83
2022-12-25T00:43:41.864Z,29.50
2022-12-25T00:46:10.774Z,49.27
2022-12-25T00:48:38.765Z,18.63
2022-12-25T00:51:09.223Z,25.50
2022-12-25T00:53:36.099Z,19.90
2022-12-25T00:56:05.479Z,34.07
2022-12-25T00:58:34.501Z,22.70
2022-12-25T01:01:02.896Z,19.33
2022-12-25T01:03:30.141Z,22.57
2022-12-25T01:06:02.827Z,30.03
2022-12-25T01:08:32.179Z,14.50
2022-12-25T01:11:07.177Z,20.70
2022-12-25T01:13:36.844Z,33.00
2022-12-25T01:16:11.977Z,21.07
2022-12-25T01:18:39.110Z,11.63
2022-12-25T01:21:11.715Z,10.13
2022-12-25T01:23:39.050Z,22.93
2022-12-25T01:26:07.651Z,16.53
2022-12-25T01:28:35.152Z,15.37
2022-12-25T01:31:03.168Z,11.10
2022-12-25T01:33:30.196Z,19.50
2022-12-25T01:35:58.758Z,22.93
2022-12-25T01:38:25.843Z,15.87
2022-12-25T01:40:52.830Z,12.50
2022-12-25T01:43:29.552Z,11.93
2022-12-25T01:45:57.939Z,17.17
2022-12-25T01:48:35.667Z,26.87
2022-12-25T01:51:14.959Z,18.17
2022-12-25T01:53:41.992Z,11.80
2022-12-25T01:56:09.485Z,13.27
2022-12-25T01:58:36.744Z,13.20
2022-12-25T02:01:03.643Z,10.20
2022-12-25T02:03:32.831Z,13.17
2022-12-25T02:06:01.441Z,13.57
2022-12-25T02:08:28.872Z,8.50
2022-12-25T02:10:55.886Z,17.50
2022-12-25T02:13:22.931Z,16.73
2022-12-25T02:16:21.173Z,16.97
2022-12-25T02:19:00.945Z,20.27
2022-12-25T02:22:12.416Z,22.50
2022-12-25T02:24:57.605Z,16.00
2022-12-25T02:28:07.431Z,11.03
2022-12-25T02:30:44.056Z,12.83
2022-12-25T02:33:46.527Z,9.77
2022-12-25T02:36:18.998Z,11.87
2022-12-25T02:39:10.830Z,5.10
2022-12-25T02:41:44.192Z,12.20
2022-12-25T02:44:36.503Z,7.63
2022-12-25T02:47:25.263Z,9.90
2022-12-25T02:50:12.432Z,6.57
2022-12-25T02:53:00.727Z,8.50
2022-12-25T02:55:52.458Z,17.27
2022-12-25T02:58:41.601Z,10.63
2022-12-25T03:01:39.220Z,6.00
2022-12-25T03:04:29.530Z,6.33
2022-12-25T03:07:16.550Z,9.67
2022-12-25T03:10:33.440Z,6.37
2022-12-25T03:13:29.218Z,9.60
2022-12-25T03:16:14.789Z,5.63
2022-12-25T03:18:42.431Z,8.57
2022-12-25T03:21:28.051Z,10.90
2022-12-25T03:24:17.798Z,16.60
2022-12-25T03:26:57.002Z,6.80
2022-12-25T03:29:58.489Z,8.17
2022-12-25T03:32:58.993Z,6.90
2022-12-25T03:35:44.273Z,6.40
2022-12-25T03:39:12.828Z,5.00
2022-12-25T03:42:08.644Z,8.03
2022-12-25T03:45:21.956Z,5.80
2022-12-25T03:48:09.746Z,9.63
2022-12-25T03:51:07.782Z,7.63
2022-12-25T03:54:05.969Z,3.90
2022-12-25T03:56:52.686Z,4.63
2022-12-25T03:59:39.764Z,5.07
2022-12-25T04:02:25.437Z,7.03
2022-12-25T04:05:11.224Z,7.00
2022-12-25T04:07:56.778Z,10.60
2022-12-25T04:10:42.094Z,4.43
2022-12-25T04:13:27.350Z,4.07
2022-12-25T04:16:13.906Z,6.20
2022-12-25T04:18:59.649Z,3.73
2022-12-25T04:21:45.827Z,10.20
2022-12-25T04:24:31.778Z,5.40
2022-12-25T04:27:17.398Z,5.33
2022-12-25T04:30:02.835Z,5.87
2022-12-25T04:32:48.246Z,4.20
2022-12-25T04:35:33.745Z,5.40
2022-12-25T04:38:00.681Z,3.47
2022-12-25T04:40:27.623Z,8.53
2022-12-25T04:42:54.614Z,5.40
2022-12-25T04:45:21.503Z,8.77
2022-12-25T04:47:48.524Z,5.20
2022-12-25T04:50:15.466Z,10.90
2022-12-25T04:52:42.517Z,4.03
2022-12-25T04:55:11.207Z,8.40
2022-12-25T04:57:38.530Z,3.33
2022-12-25T05:00:07.079Z,4.30
2022-12-25T05:02:34.272Z,10.20
2022-12-25T05:05:02.082Z,7.13
2022-12-25T05:07:29.043Z,3.93
2022-12-25T05:09:55.928Z,3.67
2022-12-25T05:12:22.855Z,5.50
2022-12-25T05:14:49.807Z,7.70
2022-12-25T05:17:17.237Z,3.47
2022-12-25T05:19:44.085Z,7.83
2022-12-25T05:22:11.073Z,9.07
2022-12-25T05:24:37.995Z,5.47
2022-12-25T05:27:04.921Z,6.63
2022-12-25T05:29:33.132Z,8.83
2022-12-25T05:32:02.462Z,5.53
2022-12-25T05:34:29.392Z,4.20
2022-12-25T05:36:56.759Z,7.53
2022-12-25T05:39:24.380Z,7.33
2022-12-25T05:41:51.597Z,9.30
2022-12-25T05:44:18.485Z,4.93
2022-12-25T05:46:45.446Z,6.30
2022-12-25T05:49:12.851Z,2.57
2022-12-25T05:51:39.862Z,3.63
2022-12-25T05:54:06.825Z,9.13
2022-12-25T05:56:33.732Z,4.33
2022-12-25T05:59:00.656Z,6.80
2022-12-25T06:01:28.863Z,3.53
2022-12-25T06:03:56.785Z,6.97
2022-12-25T06:06:23.792Z,4.80
2022-12-25T06:08:53.031Z,5.00
2022-12-25T06:11:20.095Z,9.63
2022-12-25T06:13:50.982Z,3.50
2022-12-25T06:16:18.323Z,9.27
2022-12-25T06:18:48.636Z,5.73
2022-12-25T06:21:16.542Z,4.63
2022-12-25T06:23:43.741Z,6.70
2022-12-25T06:26:13.974Z,8.07
2022-12-25T06:28:41.229Z,5.90
2022-12-25T06:31:10.489Z,11.40
2022-12-25T06:33:37.830Z,4.23
2022-12-25T06:36:10.869Z,6.13
2022-12-25T06:38:37.815Z,5.70
2022-12-25T06:41:07.107Z,3.13
2022-12-25T06:43:34.371Z,3.97
2022-12-25T06:46:10.095Z,7.30
2022-12-25T06:48:39.110Z,6.17
2022-12-25T06:51:07.121Z,7.00
2022-12-25T06:53:40.237Z,7.63
2022-12-25T06:56:16.501Z,5.00
2022-12-25T06:58:48.332Z,5.70
2022-12-25T07:01:28.476Z,5.77
2022-12-25T07:03:58.398Z,5.53
2022-12-25T07:06:25.295Z,6.37
2022-12-25T07:08:52.266Z,4.33
2022-12-25T07:11:19.706Z,8.43
2022-12-25T07:13:46.770Z,3.53
2022-12-25T07:16:14.811Z,3.40
2022-12-25T07:18:42.158Z,9.20
2022-12-25T07:21:16.392Z,3.90
2022-12-25T07:23:44.270Z,6.60
2022-12-25T07:26:13.078Z,5.07
2022-12-25T07:28:40.313Z,4.47
2022-12-25T07:31:17.527Z,5.73
2022-12-25T07:33:45.171Z,7.00
2022-12-25T07:36:13.373Z,4.70
2022-12-25T07:38:41.703Z,3.37
2022-12-25T07:41:10.782Z,7.23
2022-12-25T07:43:37.738Z,3.67
2022-12-25T07:46:05.220Z,3.73
2022-12-25T07:48:32.434Z,2.87
2022-12-25T07:51:05.629Z,3.87
2022-12-25T07:53:34.464Z,4.40
2022-12-25T07:56:03.734Z,5.80
2022-12-25T07:58:31.848Z,6.60
2022-12-25T08:01:07.221Z,5.47
2022-12-25T08:03:35.283Z,4.90
2022-12-25T08:06:04.556Z,5.07
2022-12-25T08:08:31.725Z,3.33
2022-12-25T08:10:58.803Z,3.40
2022-12-25T08:13:25.711Z,5.47
2022-12-25T08:15:58.919Z,8.50
2022-12-25T08:18:29.984Z,4.67
2022-12-25T08:21:01.873Z,6.03
2022-12-25T08:23:28.721Z,2.47
2022-12-25T08:26:04.435Z,4.50
2022-12-25T08:28:33.456Z,8.03
2022-12-25T08:31:00.600Z,3.10
2022-12-25T08:33:27.831Z,3.00
2022-12-25T08:35:56.448Z,2.73
2022-12-25T08:38:23.359Z,1.80
2022-12-25T08:40:50.207Z,3.53
2022-12-25T08:43:17.200Z,6.80
2022-12-25T08:45:47.421Z,6.17
2022-12-25T08:48:14.656Z,5.10
2022-12-25T08:50:47.053Z,9.13
2022-12-25T08:53:14.784Z,3.87
2022-12-25T08:55:41.808Z,5.43
2022-12-25T08:58:08.911Z,5.53
2022-12-25T09:00:36.517Z,3.73
2022-12-25T09:03:04.586Z,2.83
2022-12-25T09:05:31.752Z,3.80
2022-12-25T09:07:58.701Z,7.33
2022-12-25T09:10:25.641Z,4.43
2022-12-25T09:12:52.758Z,4.80
2022-12-25T09:15:19.828Z,2.33
2022-12-25T09:17:46.758Z,4.20
2022-12-25T09:20:13.829Z,2.93
2022-12-25T09:22:40.753Z,3.13
2022-12-25T09:25:08.160Z,5.33
2022-12-25T09:27:35.168Z,3.93
2022-12-25T09:30:02.309Z,2.37
2022-12-25T09:32:29.601Z,4.43
2022-12-25T09:34:56.579Z,5.37
2022-12-25T09:37:23.502Z,3.10
2022-12-25T09:39:50.435Z,3.00
2022-12-25T09:42:28.632Z,5.53
2022-12-25T09:45:11.630Z,5.43
2022-12-25T09:47:43.875Z,6.67
2022-12-25T09:50:41.046Z,3.33
2022-12-25T09:53:14.874Z,6.33
2022-12-25T09:55:49.898Z,3.93
2022-12-25T09:58:16.761Z,5.73
2022-12-25T10:00:52.160Z,4.13
2022-12-25T10:03:55.417Z,16.53
2022-12-25T10:06:58.821Z,8.23
2022-12-25T10:09:55.009Z,9.00
2022-12-25T10:12:27.311Z,3.83
2022-12-25T10:15:13.314Z,4.73
2022-12-25T10:18:21.987Z,6.43
2022-12-25T10:20:56.812Z,6.50
2022-12-25T10:23:37.341Z,6.90
2022-12-25T10:26:16.610Z,5.93
2022-12-25T10:28:46.853Z,8.10
2022-12-25T10:31:25.597Z,5.47
2022-12-25T10:33:56.297Z,6.40
2022-12-25T10:36:26.548Z,15.50
2022-12-25T10:38:54.250Z,11.33
2022-12-25T10:42:00.120Z,10.13
2022-12-25T10:44:27.446Z,5.37
2022-12-25T10:46:56.991Z,16.00
2022-12-25T10:49:28.721Z,5.07
2022-12-25T10:51:55.683Z,9.03
2022-12-25T10:54:32.582Z,11.80
2022-12-25T10:57:04.599Z,11.40
2022-12-25T10:59:41.463Z,9.63
2022-12-25T11:02:24.011Z,9.80
2022-12-25T11:04:58.059Z,10.47
2022-12-25T11:07:26.408Z,11.50
2022-12-25T11:10:05.416Z,8.50
2022-12-25T11:12:45.502Z,8.10
2022-12-25T11:15:45.076Z,7.57
2022-12-25T11:18:29.649Z,5.20
2022-12-25T11:20:59.249Z,8.73
2022-12-25T11:23:28.413Z,7.10
2022-12-25T11:26:03.777Z,6.33
2022-12-25T11:28:33.344Z,9.27
2022-12-25T11:31:41.705Z,6.60
2022-12-25T11:34:36.256Z,8.87
2022-12-25T11:37:05.035Z,5.00
2022-12-25T11:39:37.939Z,7.03
2022-12-25T11:42:25.253Z,8.07
2022-12-25T11:45:03.447Z,5.93
2022-12-25T11:48:00.645Z,14.70
2022-12-25T11:50:37.989Z,6.90
2022-12-25T11:53:37.497Z,7.50
2022-12-25T11:56:17.438Z,7.70
2022-12-25T11:58:49.279Z,7.97
2022-12-25T12:01:37.499Z,7.40
2022-12-25T12:04:15.960Z,7.53
2022-12-25T12:07:15.213Z,7.30
2022-12-25T12:09:59.841Z,11.77
2022-12-25T12:12:29.393Z,12.40
2022-12-25T12:15:08.578Z,14.40
2022-12-25T12:17:35.620Z,8.60
2022-12-25T12:20:33.365Z,7.10
2022-12-25T12:23:04.302Z,8.23
2022-12-25T12:25:31.708Z,6.33
2022-12-25T12:28:05.580Z,5.27
2022-12-25T12:30:35.797Z,6.43
2022-12-25T12:33:06.333Z,9.10
2022-12-25T12:35:36.781Z,5.50
2022-12-25T12:38:08.307Z,7.50
2022-12-25T12:40:39.344Z,7.20
2022-12-25T12:43:23.167Z,5.40
2022-12-25T12:45:57.302Z,6.80
2022-12-25T12:48:29.357Z,6.77
2022-12-25T12:51:05.527Z,5.67
2022-12-25T12:53:33.530Z,5.87
2022-12-25T12:56:18.738Z,5.63
2022-12-25T12:58:51.121Z,10.13
2022-12-25T13:01:41.464Z,5.87
2022-12-25T13:04:37.071Z,7.33
2022-12-25T13:07:20.385Z,4.67
2022-12-25T13:10:13.213Z,8.20
2022-12-25T13:12:40.265Z,6.23
2022-12-25T13:15:13.487Z,4.97
2022-12-25T13:17:44.949Z,8.93
2022-12-25T13:20:29.397Z,6.10
2022-12-25T13:22:56.284Z,11.60
2022-12-25T13:25:24.029Z,9.20
2022-12-25T13:27:58.533Z,37.47
2022-12-25T13:30:28.765Z,8.43
2022-12-25T13:32:57.371Z,63.00
2022-12-25T13:35:24.376Z,14.27
2022-12-25T13:37:51.694Z,24.47
2022-12-25T13:40:37.509Z,36.37
2022-12-25T13:43:04.951Z,14.30
2022-12-25T13:45:34.145Z,22.80
2022-12-25T13:48:15.402Z,20.60
2022-12-25T13:50:48.423Z,10.50
2022-12-25T13:53:17.472Z,9.87
2022-12-25T13:55:50.120Z,7.33
2022-12-25T13:58:29.724Z,7.97
2022-12-25T14:01:03.159Z,7.40
2022-12-25T14:03:46.143Z,7.70
2022-12-25T14:06:25.107Z,9.00
2022-12-25T14:08:54.162Z,11.43
2022-12-25T14:11:23.366Z,18.13
2022-12-25T14:13:59.988Z,15.80
2022-12-25T14:16:27.501Z,17.27
2022-12-25T14:19:03.765Z,17.60
2022-12-25T14:21:38.428Z,16.30
2022-12-25T14:24:14.001Z,15.03
2022-12-25T14:26:41.182Z,18.67
2022-12-25T14:29:18.194Z,15.97
2022-12-25T14:31:47.768Z,14.27
2022-12-25T14:34:20.847Z,15.50
2022-12-25T14:36:51.600Z,14.70
2022-12-25T14:40:03.559Z,14.93
2022-12-25T14:42:35.097Z,15.10
2022-12-25T14:45:33.516Z,20.03
2022-12-25T14:48:24.466Z,15.00
2022-12-25T14:51:10.336Z,17.10
2022-12-25T14:53:58.937Z,16.17
2022-12-25T14:56:28.447Z,15.23
2022-12-25T14:59:02.617Z,12.77
2022-12-25T15:01:35.710Z,13.43
2022-12-25T15:04:16.124Z,22.70
2022-12-25T15:06:53.174Z,13.67
2022-12-25T15:09:21.098Z,19.47
2022-12-25T15:11:52.083Z,28.97
2022-12-25T15:14:19.434Z,22.67
2022-12-25T15:16:51.059Z,45.70
2022-12-25T15:19:26.511Z,62.00
2022-12-25T15:21:56.806Z,33.57
2022-12-25T15:24:23.820Z,20.03
2022-12-25T15:26:53.300Z,18.30
2022-12-25T15:29:32.373Z,14.03
2022-12-25T15:32:16.073Z,13.20
2022-12-25T15:34:43.075Z,11.40
2022-12-25T15:37:10.274Z,12.67
2022-12-25T15:39:37.293Z,12.90
2022-12-25T15:42:13.467Z,15.73
2022-12-25T15:44:41.771Z,15.20
2022-12-25T15:47:14.063Z,15.00
2022-12-25T15:49:41.412Z,13.23
2022-12-25T15:52:13.290Z,15.13
2022-12-25T15:54:40.551Z,19.23
2022-12-25T15:57:17.007Z,19.27
2022-12-25T15:59:44.075Z,16.83
2022-12-25T16:02:20.186Z,17.60
2022-12-25T16:04:47.641Z,18.23
2022-12-25T16:07:19.881Z,17.80
2022-12-25T16:09:47.029Z,15.63
2022-12-25T16:12:14.002Z,15.80
2022-12-25T16:14:41.083Z,21.00
2022-12-25T16:17:08.231Z,16.13
2022-12-25T16:19:35.113Z,16.03
2022-12-25T16:22:11.805Z,16.40
2022-12-25T16:24:38.816Z,21.27
2022-12-25T16:27:05.784Z,18.63
2022-12-25T16:29:32.755Z,31.03
2022-12-25T16:32:00.001Z,17.67
2022-12-25T16:34:27.387Z,17.73
2022-12-25T16:36:56.320Z,24.50
2022-12-25T16:39:23.427Z,22.63
2022-12-25T16:41:52.638Z,24.47
2022-12-25T16:44:19.645Z,16.90
2022-12-25T16:46:46.658Z,26.00
2022-12-25T16:49:13.615Z,20.60
2022-12-25T16:51:40.473Z,19.73
2022-12-25T16:54:07.528Z,29.80
2022-12-25T16:56:36.719Z,25.97
2022-12-25T16:59:03.925Z,17.47
2022-12-25T17:01:31.037Z,19.63
2022-12-25T17:04:02.097Z,22.23
2022-12-25T17:06:29.691Z,20.50
2022-12-25T17:09:00.666Z,30.43
2022-12-25T17:11:30.145Z,25.33
2022-12-25T17:14:02.693Z,24.20
2022-12-25T17:16:34.328Z,30.13
2022-12-25T17:19:04.523Z,21.23
2022-12-25T17:21:35.645Z,23.00
2022-12-25T17:24:04.229Z,25.70
2022-12-25T17:26:32.555Z,19.60
2022-12-25T17:29:00.294Z,25.00
2022-12-25T17:31:28.245Z,25.50
2022-12-25T17:33:55.235Z,19.80
2022-12-25T17:36:23.119Z,24.13
2022-12-25T17:38:50.111Z,21.67
2022-12-25T17:41:18.801Z,18.40
2022-12-25T17:43:48.929Z,22.13
2022-12-25T17:46:22.164Z,21.27
2022-12-25T17:48:50.365Z,26.33
2022-12-25T17:51:19.807Z,21.60
2022-12-25T17:53:48.972Z,23.10
2022-12-25T17:56:16.871Z,21.60
2022-12-25T17:58:44.375Z,21.53
2022-12-25T18:01:14.549Z,35.67
2022-12-25T18:03:43.045Z,26.97
2022-12-25T18:06:14.159Z,25.93
2022-12-25T18:08:42.843Z,26.20
2022-12-25T18:11:15.170Z,29.73
2022-12-25T18:13:48.522Z,22.13
2022-12-25T18:16:17.340Z,18.93
2022-12-25T18:18:51.993Z,19.17
2022-12-25T18:21:21.546Z,16.03
2022-12-25T18:23:49.013Z,22.07
2022-12-25T18:26:16.011Z,12.70
2022-12-25T18:28:44.063Z,13.47
2022-12-25T18:31:14.502Z,15.57
2022-12-25T18:33:42.036Z,10.10
2022-12-25T18:36:14.258Z,7.30
2022-12-25T18:38:42.914Z,7.90
2022-12-25T18:41:11.065Z,7.97
2022-12-25T18:43:54.148Z,6.97
2022-12-25T18:46:27.334Z,6.97
2022-12-25T18:48:56.109Z,6.70
2022-12-25T18:51:23.593Z,15.03
2022-12-25T18:53:51.341Z,7.17
2022-12-25T18:56:18.708Z,6.23
2022-12-25T18:58:46.372Z,9.67
2022-12-25T19:01:19.011Z,8.30
2022-12-25T19:03:46.623Z,6.77
2022-12-25T19:06:21.335Z,9.10
2022-12-25T19:08:49.138Z,8.57
2022-12-25T19:11:16.808Z,7.17
2022-12-25T19:13:44.155Z,5.77
2022-12-25T19:16:12.062Z,10.83
2022-12-25T19:18:40.049Z,7.60
2022-12-25T19:21:09.285Z,8.50
2022-12-25T19:23:37.886Z,6.60
2022-12-25T19:26:09.269Z,9.43
2022-12-25T19:28:37.550Z,8.50
2022-12-25T19:31:10.222Z,6.30
2022-12-25T19:33:40.200Z,6.97
2022-12-25T19:36:13.128Z,7.27
2022-12-25T19:38:40.171Z,18.83
2022-12-25T19:41:18.348Z,9.30
2022-12-25T19:43:49.457Z,7.83
2022-12-25T19:46:33.940Z,7.37
2022-12-25T19:49:04.678Z,7.10
2022-12-25T19:51:38.775Z,7.20
2022-12-25T19:54:06.536Z,8.70
2022-12-25T19:56:34.159Z,11.10
2022-12-25T19:59:02.978Z,9.90
2022-12-25T20:01:30.504Z,10.10
2022-12-25T20:03:57.685Z,13.43
2022-12-25T20:06:31.329Z,13.03
2022-12-25T20:09:01.744Z,13.73
2022-12-25T20:11:30.672Z,12.83
2022-12-25T20:13:59.199Z,10.43
2022-12-25T20:16:26.733Z,11.10
2022-12-25T20:18:54.169Z,11.37
2022-12-25T20:21:23.021Z,11.33
2022-12-25T20:23:52.544Z,10.43
2022-12-25T20:26:22.845Z,13.23
2022-12-25T20:28:50.366Z,8.17
2022-12-25T20:31:22.324Z,9.83
2022-12-25T20:33:49.768Z,14.33
2022-12-25T20:36:18.492Z,9.63
2022-12-25T20:38:45.529Z,9.13
2022-12-25T20:41:31.701Z,7.93
2022-12-25T20:43:58.909Z,9.97
2022-12-25T20:46:27.610Z,9.00
2022-12-25T20:48:54.763Z,10.93
2022-12-25T20:51:25.778Z,9.03
2022-12-25T20:53:55.093Z,8.57
2022-12-25T20:56:24.505Z,8.70
2022-12-25T20:59:00.346Z,11.03
2022-12-25T21:01:29.536Z,8.80
2022-12-25T21:03:57.012Z,10.13
2022-12-25T21:06:25.396Z,9.77
2022-12-25T21:08:52.564Z,16.80
2022-12-25T21:11:21.334Z,12.53
2022-12-25T21:13:49.039Z,8.73
2022-12-25T21:16:22.352Z,9.10
2022-12-25T21:18:51.174Z,9.67
2022-12-25T21:21:19.009Z,12.00
2022-12-25T21:23:46.525Z,10.30
2022-12-25T21:26:20.680Z,10.70
2022-12-25T21:28:52.595Z,10.63
2022-12-25T21:31:22.544Z,11.23
2022-12-25T21:33:55.348Z,9.57
2022-12-25T21:36:30.677Z,11.63
2022-12-25T21:39:05.723Z,9.60
2022-12-25T21:41:33.947Z,12.97
2022-12-25T21:44:02.300Z,10.40
2022-12-25T21:46:29.906Z,8.30
2022-12-25T21:48:58.562Z,13.67
2022-12-25T21:51:50.985Z,10.83
2022-12-25T21:54:19.676Z,14.53
2022-12-25T21:56:48.014Z,11.87
2022-12-25T21:59:20.219Z,8.57
2022-12-25T22:01:49.204Z,11.23
2022-12-25T22:04:19.855Z,11.10
2022-12-25T22:07:05.541Z,12.53
2022-12-25T22:09:32.667Z,10.60
2022-12-25T22:12:18.704Z,13.67
2022-12-25T22:14:57.152Z,12.00
2022-12-25T22:17:48.661Z,15.50
2022-12-25T22:20:22.512Z,14.27
2022-12-25T22:22:49.744Z,19.23
2022-12-25T22:25:18.372Z,12.70
2022-12-25T22:27:47.049Z,15.97
2022-12-25T22:30:18.535Z,15.20
2022-12-25T22:32:50.969Z,12.70
2022-12-25T22:35:18.208Z,17.70
2022-12-25T22:37:46.071Z,11.10
2022-12-25T22:40:16.560Z,13.10
2022-12-25T22:42:43.987Z,15.90
2022-12-25T22:45:12.184Z,10.87
2022-12-25T22:47:39.499Z,14.77
2022-12-25T22:50:07.388Z,20.00
2022-12-25T22:52:34.370Z,9.47
2022-12-25T22:55:02.527Z,10.90
2022-12-25T22:57:29.557Z,17.87
2022-12-25T22:59:57.564Z,12.87
2022-12-25T23:02:26.112Z,27.40
2022-12-25T23:04:53.562Z,13.03
2022-12-25T23:07:20.488Z,11.33
2022-12-25T23:09:47.527Z,10.20
2022-12-25T23:12:46.932Z,13.70
2022-12-25T23:15:13.986Z,11.40
2022-12-25T23:17:59.481Z,13.07
2022-12-25T23:20:44.955Z,15.43
2022-12-25T23:23:34.595Z,9.30
2022-12-25T23:26:10.398Z,9.70
2022-12-25T23:28:58.056Z,10.27
2022-12-25T23:31:32.368Z,12.47
2022-12-25T23:34:01.662Z,11.57
2022-12-25T23:36:30.845Z,11.37
2022-12-25T23:39:03.017Z,10.40
2022-12-25T23:41:34.008Z,13.37
2022-12-25T23:44:00.913Z,12.33
2022-12-25T23:46:28.227Z,12.07
2022-12-25T23:48:55.174Z,13.27
2022-12-25T23:51:22.380Z,10.20
2022-12-25T23:53:50.086Z,9.13
2022-12-25T23:56:17.088Z,9.60
2022-12-25T23:58:51.756Z,8.90
